< < Back
Terminal Aerodrome Forecast


Current Version              Previous Versions:   1  2  3  4  5  6  7  8  9  

Terminal Aerodrome Forecast

068
FTUS42 KFFC 292329
TAFAHN
TAF
KAHN 292329Z 3000/3024 20005KT P6SM BKN250
     FM300300 21006KT P6SM BKN050
     FM300500 23005KT P6SM VCSH BKN025 OVC080
     FM300800 30015G25KT P6SM OVC025
     FM301100 32012KT P6SM BKN035
     FM301300 32014KT P6SM SCT040
     FM301500 32014G24KT P6SM SCT150=



Latest METAR

629
SAUS70 KWBC 301054
MTRAHN
METAR KAHN 301051Z AUTO 31010G20KT 10SM CLR 04/M02 A3015 RMK AO2 SLP212
T00441017 $


USA.gov is the U.S. government's official web portal to all federal, state and local government web resources and services.